Flight Track Log - Related Links

Times and Time Zones

All times are in EDT time to prevent confusion due to time zone crossing. See the MAX120 flight status page for this flight to view local times or setup timezone preferences in your user account.

Time Position Orientation Groundspeed Altitude Reporting Facility
EDT Latitude Longitude Course Direction KTS MPH feet Rate Location/Type
Wed 09:18:00 AM 45.7802 -73.8324 349° North  Level FlightAware Approximate
Wed 09:20:20 AM 45.4500 -73.8000 295° West 160 184 2,600  Level Montreal Center
Wed 09:21:20 AM 45.5000 -73.8167 347° North 180 207 3,800 1,250 Climbing Montreal Center
Wed 09:22:20 AM 45.5500 -73.8333 347° North 180 207 5,100 1,300 Climbing Montreal Center
Wed 09:23:20 AM 45.6000 -73.8333 360° North 180 207 6,400 1,350 Climbing Montreal Center
Wed 09:24:20 AM 45.6500 -73.8500 347° North 180 207 7,800 1,350 Climbing Montreal Center
Wed 09:25:20 AM 45.7000 -73.8500 360° North 180 207 9,100 1,350 Climbing Montreal Center
Wed 09:26:20 AM 45.7500 -73.8833 335° Northwest 180 207 10,500 1,250 Climbing Montreal Center
Wed 09:27:20 AM 45.8000 -73.8833 360° North 180 207 11,600 1,150 Climbing Montreal Center
Wed 09:28:20 AM 45.8500 -73.8667 13° North 180 207 12,800 1,100 Climbing Montreal Center
Wed 09:29:20 AM 45.9000 -73.8667 360° North 180 207 13,800 1,050 Climbing Montreal Center
Wed 09:30:20 AM 45.9500 -73.9000 335° Northwest 180 207 14,900 1,050 Climbing Montreal Center
Wed 09:31:20 AM 46.0000 -73.9000 360° North 180 207 15,900 1,000 Climbing Montreal Center
Wed 09:32:20 AM 46.0667 -73.9167 350° North 170 196 16,900 1,000 Climbing Montreal Center
Wed 09:33:20 AM 46.1000 -73.9167 360° North 170 196 17,900 850 Climbing Montreal Center
Wed 09:34:20 AM 46.1500 -73.9333 347° North 170 196 18,600 750 Climbing Montreal Center
Wed 09:35:20 AM 46.2000 -73.9333 360° North 160 184 19,400 700 Climbing Montreal Center
Wed 09:36:20 AM 46.2333 -73.9500 341° North 160 184 20,000 650 Climbing Montreal Center
Wed 09:37:20 AM 46.2833 -73.9500 360° North 170 196 20,700 500 Climbing Montreal Center
Wed 09:38:20 AM 46.3333 -73.9833 335° Northwest 170 196 21,000 200 Climbing Montreal Center
Wed 09:39:20 AM 46.3833 -73.9667 13° North 190 219 21,100 50 Climbing Montreal Center
Wed 09:40:20 AM 46.4333 -73.9667 360° North 200 230 21,100 -50 Level Montreal Center
Wed 09:41:20 AM 46.4833 -74.0000 335° Northwest 200 230 21,000 -50 Descending Montreal Center
Wed 09:42:20 AM 46.5500 -74.0167 350° North 210 242 21,000  Level Montreal Center
Wed 09:43:20 AM 46.6000 -74.0167 360° North 210 242 21,000  Level Montreal Center
Wed 09:44:20 AM 46.6667 -74.0333 350° North 210 242 21,000  Level Montreal Center
Wed 09:45:20 AM 46.7167 -74.0667 335° Northwest 210 242 21,000  Level Montreal Center
Wed 09:46:20 AM 46.7667 -74.0500 13° North 210 242 21,000  Level Montreal Center
Wed 09:47:20 AM 46.8333 -74.0833 341° North 210 242 21,000  Level Montreal Center
Wed 09:48:20 AM 46.8833 -74.0833 360° North 210 242 21,000  Level Montreal Center
Wed 09:49:20 AM 46.9500 -74.1000 350° North 210 242 21,000  Level Montreal Center
Wed 09:50:20 AM 47.0000 -74.1000 360° North 210 242 21,000  Level Montreal Center
Wed 09:51:20 AM 47.0667 -74.1167 350° North 210 242 21,000  Level Montreal Center
Wed 09:52:20 AM 47.1167 -74.1500 336° Northwest 210 242 21,000  Level Montreal Center
Wed 09:53:20 AM 47.1833 -74.1333 10° North 210 242 21,000  Level Montreal Center
Wed 09:54:20 AM 47.2333 -74.1667 336° Northwest 210 242 21,000  Level Montreal Center
Wed 09:55:20 AM 47.3000 -74.1667 360° North 220 253 21,000  Level Montreal Center
Wed 09:56:20 AM 47.3500 -74.1833 347° North 220 253 21,000  Level Montreal Center
Wed 09:57:20 AM 47.4167 -74.1833 360° North 220 253 21,000  Level Montreal Center
Wed 09:58:20 AM 47.4667 -74.1833 360° North 220 253 21,000  Level Montreal Center
Wed 09:59:20 AM 47.5333 -74.2000 350° North 210 242 21,000  Level Montreal Center
Wed 10:00:20 AM 47.5833 -74.2000 360° North 220 253 21,000  Level Montreal Center
Wed 10:01:20 AM 47.6667 -74.2167 352° North 220 253 21,000  Level Montreal Center
Wed 10:02:20 AM 47.7333 -74.2167 360° North 220 253 21,000  Level Montreal Center
Wed 10:03:20 AM 47.8000 -74.2500 341° North 220 253 21,000  Level Montreal Center
Wed 10:04:20 AM 47.8500 -74.2333 13° North 220 253 21,000  Level Montreal Center
Wed 10:05:20 AM 47.9167 -74.2333 360° North 220 253 21,000  Level Montreal Center
Wed 10:06:20 AM 47.9667 -74.2667 336° Northwest 220 253 21,000  Level Montreal Center
Wed 10:07:20 AM 48.0333 -74.2667 360° North 220 253 21,000  Level Montreal Center
Wed 10:08:20 AM 48.1000 -74.2833 351° North 220 253 21,000  Level Montreal Center
Wed 10:09:20 AM 48.1500 -74.2833 360° North 220 253 21,000  Level Montreal Center
Wed 10:10:20 AM 48.2167 -74.3000 351° North 220 253 21,000  Level Montreal Center
Wed 10:11:20 AM 48.2833 -74.3000 360° North 220 253 21,000  Level Montreal Center
Wed 10:12:20 AM 48.3500 -74.3000 360° North 220 253 21,000  Level Montreal Center
Wed 10:13:20 AM 48.4000 -74.3167 348° North 220 253 21,000  Level Montreal Center
Wed 10:14:20 AM 48.4667 -74.3167 360° North 220 253 21,000 -150 Level Montreal Center
Wed 10:15:20 AM 48.5333 -74.3500 342° North 230 265 20,700 -650 Descending Montreal Center
Wed 10:16:20 AM 48.6000 -74.3333 North 240 276 19,700 -1,100 Descending Montreal Center
Wed 10:17:20 AM 48.6667 -74.3667 342° North 240 276 18,500 -1,100 Descending Montreal Center
Wed 10:18:20 AM 48.7333 -74.3667 360° North 240 276 17,500 -1,100 Descending Montreal Center
Wed 10:19:20 AM 48.8000 -74.3833 351° North 240 276 16,300 -1,100 Descending Montreal Center
Wed 10:20:20 AM 48.8500 -74.4000 348° North 240 276 15,300 -1,100 Descending Montreal Center
Wed 10:21:20 AM 48.9167 -74.4333 342° North 240 276 14,100 -1,150 Descending Montreal Center
Wed 10:22:20 AM 48.9833 -74.4500 351° North 230 265 13,000 -1,150 Descending Montreal Center
Wed 10:23:20 AM 49.0500 -74.4833 342° North 230 265 11,800 -1,100 Descending Montreal Center
Wed 10:24:20 AM 49.1167 -74.5000 351° North 230 265 10,800 -1,100 Descending Montreal Center
Wed 10:25:20 AM 49.2000 -74.5333 345° North 230 265 9,600 -1,150 Descending Montreal Center
Wed 10:26:20 AM 49.2500 -74.5167 12° North 230 265 8,500 -1,150 Descending Montreal Center
Wed 10:27:20 AM 49.3167 -74.5500 342° North 230 265 7,300 -1,150 Descending Montreal Center
Wed 10:28:20 AM 49.3833 -74.5667 351° North 220 253 6,200 -1,050 Descending Montreal Center
Wed 10:29:20 AM 49.4333 -74.6000 337° Northwest 220 253 5,200 -1,100 Descending Montreal Center
Wed 10:30:20 AM 49.5000 -74.6167 351° North 220 253 4,000 -950 Descending Montreal Center
Wed 10:31:20 AM 49.5500 -74.6500 337° Northwest 220 253 3,300 -350 Descending Montreal Center
Wed 10:32:20 AM 49.6000 -74.6500 360° North 200 230 3,300  Level Montreal Center
Wed 10:33:20 AM 49.6500 -74.6167 23° Northeast 160 184 3,300 -50 Level Montreal Center
Wed 10:34:20 AM 49.6833 -74.5833 33° Northeast 150 173 3,200 -600 Descending Montreal Center
Wed 10:35:20 AM 49.7167 -74.5667 18° North 140 161 2,100 -850 Descending Montreal Center
Wed 10:36:20 AM 49.7500 -74.5333 33° Northeast 130 150 1,500 -600 Descending Montreal Center

Login

Don't have an account? Register now (free) for customized features, flight alerts, and more!